Saffet Bey — TCUZ — position and weather

sailwx.info

Track history (hours):
 
Tides and Currents Weather Stations Pressure Air Temp Water Temp Dewpoint Dewpoint Depression Visibility Wind Speed Wind Dir Waves Ship Positions

Saffet Bey

Last reported at 2015-Jul-26 23:16 UTC. Time now 2015-Jul-31 19:24 UTC.
Position N 37°15' E 024°48'.

Length 164 m; draft 6.5 m.

Type: Cargo ship. MMSI: 271000419.

Date/timePositionNaut miles runAvg speedWind from/ knotsBaromVisibWave heightAir tempDewpointWater temp
2015-Jul-26 23:16N 37°15' E 024°48'1115.6
2015-Jul-26 22:33N 37°21' E 024°59'1514.6
2015-Jul-26 21:34N 37°30' E 025°13'1714.9
2015-Jul-26 20:25N 37°42' E 025°29'  
2015-Jul-19 13:18N 37°51' E 025°41'1013.5
2015-Jul-19 12:33N 37°43' E 025°32'1413.6
2015-Jul-19 11:31N 37°34' E 025°19'1313.7
2015-Jul-19 10:33N 37°25' E 025°06'1413.5
2015-Jul-19 09:33N 37°17' E 024°53'  
Track history (hours):
 
Tides and Currents Weather Stations Pressure Air Temp Water Temp Dewpoint Dewpoint Depression Visibility Wind Speed Wind Dir Waves Ship Positions

Saffet Bey

Last reported at 2015-Jul-26 23:16 UTC. Time now 2015-Jul-31 19:24 UTC.
Position N 37°15' E 024°48'.

Length 164 m; draft 6.5 m.

Type: Cargo ship. MMSI: 271000419.

Date/timePositionNaut miles runAvg speedWind from/ knotsBaromVisibWave heightAir tempDewpointWater temp
2015-Jul-26 23:16N 37°15' E 024°48'1115.6
2015-Jul-26 22:33N 37°21' E 024°59'1514.6
2015-Jul-26 21:34N 37°30' E 025°13'1714.9
2015-Jul-26 20:25N 37°42' E 025°29'  
2015-Jul-19 13:18N 37°51' E 025°41'1013.5
2015-Jul-19 12:33N 37°43' E 025°32'1413.6
2015-Jul-19 11:31N 37°34' E 025°19'1313.7
2015-Jul-19 10:33N 37°25' E 025°06'1413.5
2015-Jul-19 09:33N 37°17' E 024°53'  

Dump ship's entire track history